San Luis, Argentina
Current Conditions -  °F | °C
As of 7:00 PM on Monday 20 Oct 2014 (Local Time) from SAOC Reporting Station
Clear Clear  
Wind Chill: 75°   Ceiling: Unl
Heat Index: 75°   Visibility: 6mi
Dew Point: 43°   Wind: 21mph
Humidity: 31%   Direction: 360°N
Pressure: 29.97"   Gusts: 32mph
Location:  33.3°S, 66.35°W
Report Text: SAOC 202200Z 36018G28KT CAVOK 24/06 Q1015
Loading
Personal Weather Stations






























Interactive Weather Map New forecast layout! Learn more

10-Day Weather Forecast

Advertisements
Track Severe Weather on mobile